首页
METAR-TAF:

METAR-TAF

机场 :

Lutselk'e, 西北特區, 加拿大

纬度: 62-25N, 经度: 110-40W, 海拔: 179米

当前天气观测

该预报发布于16小时和20分钟前的20:00 UTC
风速5节,风向
温度 0°C
湿度 80%
气压 1000 hPa
能見度: 24.1公里
多云层高于1700英尺
阴天层高于4500英尺

METAR: CYLK 192000Z 35005KT 15SM BKN017 OVC045 00/M03 A2952 RMK SC6SC2 0 SNW CVR/MUCH LOOSE LAST STFD OBS/NEXT 201400 UTC SLP010

时间: 06:20 (12:20 UTC)

预报

该预报发布于19小时和42分钟前的16:38 UTC
预报有效从19日的 17点(UTC)到 19日的 20点(UTC)
风速8节,风向
能見度: 10公里
阴天层高于1500英尺
短暂存在
从 19日的 17点(UTC)到 19日的 20点(UTC)
能見度: 10公里
散云层高于1500英尺
多云层高于3000英尺
小雪

TAF: CYLK 191638Z 1917/1920 01008KT P6SM OVC015 TEMPO 1917/1920 P6SM -SN SCT015 BKN030 RMK NXT FCST WILL BE ISSUED AT 201545Z

超过4000个机场的气象观测和天气预报(METAR&TAF报告)。

可查询的气象台以黄色和红色小点在地图上表示。

将鼠标移到小点上方,可查看气象台名称。

然后点击查看天气观测和预报。

如需切换地图:点击带黑十字的绿色按钮放大地图;点击带横线的绿色按钮缩小地图;或者点击绿色箭头查看邻近地区的地图。


METAR-TAF: